sensor_id;sensor_type;location;lat;lon;timestamp;P1;durP1;ratioP1;P2;durP2;ratioP2
71763;SDS011;59602;52.142;5.408;2022-11-15T00:04:28;20.48;;;8.52;;
71763;SDS011;59602;52.142;5.408;2022-11-15T00:07:20;22.92;;;9.00;;
71763;SDS011;59602;52.142;5.408;2022-11-15T00:10:58;19.13;;;7.97;;
71763;SDS011;59602;52.142;5.408;2022-11-15T00:13:50;21.60;;;8.37;;
71763;SDS011;59602;52.142;5.408;2022-11-15T00:16:53;21.08;;;9.10;;
71763;SDS011;59602;52.142;5.408;2022-11-15T00:19:20;22.80;;;9.27;;
71763;SDS011;59602;52.142;5.408;2022-11-15T00:22:13;27.15;;;9.85;;
71763;SDS011;59602;52.142;5.408;2022-11-15T00:24:53;32.72;;;10.90;;
71763;SDS011;59602;52.142;5.408;2022-11-15T00:27:29;36.43;;;11.43;;
71763;SDS011;59602;52.142;5.408;2022-11-15T00:30:04;31.23;;;10.52;;
71763;SDS011;59602;52.142;5.408;2022-11-15T00:32:36;36.13;;;10.50;;
71763;SDS011;59602;52.142;5.408;2022-11-15T00:35:05;33.90;;;11.40;;
71763;SDS011;59602;52.142;5.408;2022-11-15T00:37:32;39.55;;;11.52;;
71763;SDS011;59602;52.142;5.408;2022-11-15T00:40:07;34.77;;;11.30;;
71763;SDS011;59602;52.142;5.408;2022-11-15T00:42:55;30.90;;;10.82;;
71763;SDS011;59602;52.142;5.408;2022-11-15T00:45:24;36.42;;;11.95;;
71763;SDS011;59602;52.142;5.408;2022-11-15T00:47:51;26.05;;;10.25;;
71763;SDS011;59602;52.142;5.408;2022-11-15T00:50:21;35.17;;;10.85;;
71763;SDS011;59602;52.142;5.408;2022-11-15T00:52:47;28.90;;;9.90;;
71763;SDS011;59602;52.142;5.408;2022-11-15T00:55:19;35.67;;;11.25;;
71763;SDS011;59602;52.142;5.408;2022-11-15T00:58:05;32.42;;;10.95;;
71763;SDS011;59602;52.142;5.408;2022-11-15T01:00:56;30.42;;;10.80;;
71763;SDS011;59602;52.142;5.408;2022-11-15T01:03:35;30.23;;;11.00;;
71763;SDS011;59602;52.142;5.408;2022-11-15T01:06:09;34.70;;;11.10;;
71763;SDS011;59602;52.142;5.408;2022-11-15T01:08:40;34.30;;;10.85;;
71763;SDS011;59602;52.142;5.408;2022-11-15T01:11:09;40.58;;;12.27;;
71763;SDS011;59602;52.142;5.408;2022-11-15T01:13:40;33.28;;;11.02;;
71763;SDS011;59602;52.142;5.408;2022-11-15T01:22:46;32.58;;;9.82;;
71763;SDS011;59602;52.142;5.408;2022-11-15T01:26:19;35.22;;;10.93;;
71763;SDS011;59602;52.142;5.408;2022-11-15T01:29:43;30.27;;;10.63;;
71763;SDS011;59602;52.142;5.408;2022-11-15T01:32:10;38.65;;;10.18;;
71763;SDS011;59602;52.142;5.408;2022-11-15T01:34:38;31.40;;;10.70;;
71763;SDS011;59602;52.142;5.408;2022-11-15T01:37:06;33.58;;;10.80;;
71763;SDS011;59602;52.142;5.408;2022-11-15T01:39:32;30.88;;;11.15;;
71763;SDS011;59602;52.142;5.408;2022-11-15T01:42:05;28.65;;;10.00;;
71763;SDS011;59602;52.142;5.408;2022-11-15T01:47:11;29.87;;;10.70;;
71763;SDS011;59602;52.142;5.408;2022-11-15T01:50:12;32.42;;;10.80;;
71763;SDS011;59602;52.142;5.408;2022-11-15T01:52:44;27.70;;;9.88;;
71763;SDS011;59602;52.142;5.408;2022-11-15T01:55:16;28.88;;;10.80;;
71763;SDS011;59602;52.142;5.408;2022-11-15T01:57:46;28.90;;;10.93;;
71763;SDS011;59602;52.142;5.408;2022-11-15T02:03:26;27.77;;;9.75;;
71763;SDS011;59602;52.142;5.408;2022-11-15T02:06:00;29.40;;;11.40;;
71763;SDS011;59602;52.142;5.408;2022-11-15T02:09:04;29.27;;;10.18;;
71763;SDS011;59602;52.142;5.408;2022-11-15T02:11:33;31.50;;;10.63;;
71763;SDS011;59602;52.142;5.408;2022-11-15T02:14:18;31.63;;;10.73;;
71763;SDS011;59602;52.142;5.408;2022-11-15T02:20:13;29.58;;;10.63;;
71763;SDS011;59602;52.142;5.408;2022-11-15T02:23:13;33.15;;;10.85;;
71763;SDS011;59602;52.142;5.408;2022-11-15T02:26:21;27.80;;;9.38;;
71763;SDS011;59602;52.142;5.408;2022-11-15T02:35:12;31.92;;;10.05;;
71763;SDS011;59602;52.142;5.408;2022-11-15T02:41:11;24.73;;;10.43;;
71763;SDS011;59602;52.142;5.408;2022-11-15T02:44:01;22.97;;;9.70;;
71763;SDS011;59602;52.142;5.408;2022-11-15T02:46:52;23.73;;;10.00;;
71763;SDS011;59602;52.142;5.408;2022-11-15T02:49:51;28.48;;;11.07;;
71763;SDS011;59602;52.142;5.408;2022-11-15T02:52:39;27.23;;;9.38;;
71763;SDS011;59602;52.142;5.408;2022-11-15T02:55:30;24.17;;;9.95;;
71763;SDS011;59602;52.142;5.408;2022-11-15T03:01:15;27.08;;;10.30;;
71763;SDS011;59602;52.142;5.408;2022-11-15T03:07:00;22.60;;;8.77;;
71763;SDS011;59602;52.142;5.408;2022-11-15T03:09:39;27.33;;;10.15;;
71763;SDS011;59602;52.142;5.408;2022-11-15T03:15:30;26.75;;;10.32;;
71763;SDS011;59602;52.142;5.408;2022-11-15T03:18:33;22.40;;;9.90;;
71763;SDS011;59602;52.142;5.408;2022-11-15T03:21:23;23.85;;;10.40;;
71763;SDS011;59602;52.142;5.408;2022-11-15T03:23:51;24.35;;;10.07;;
71763;SDS011;59602;52.142;5.408;2022-11-15T03:26:21;27.07;;;11.30;;
71763;SDS011;59602;52.142;5.408;2022-11-15T03:29:11;25.60;;;10.05;;
71763;SDS011;59602;52.142;5.408;2022-11-15T03:32:07;26.60;;;10.32;;
71763;SDS011;59602;52.142;5.408;2022-11-15T03:34:40;23.15;;;9.98;;
71763;SDS011;59602;52.142;5.408;2022-11-15T03:37:15;28.83;;;10.43;;
71763;SDS011;59602;52.142;5.408;2022-11-15T03:40:03;25.20;;;9.83;;
71763;SDS011;59602;52.142;5.408;2022-11-15T03:42:57;23.27;;;10.35;;
71763;SDS011;59602;52.142;5.408;2022-11-15T03:45:56;21.00;;;9.57;;
71763;SDS011;59602;52.142;5.408;2022-11-15T03:48:37;26.02;;;9.73;;
71763;SDS011;59602;52.142;5.408;2022-11-15T03:51:45;23.67;;;10.18;;
71763;SDS011;59602;52.142;5.408;2022-11-15T03:54:47;28.27;;;10.63;;
71763;SDS011;59602;52.142;5.408;2022-11-15T03:57:27;25.15;;;9.63;;
71763;SDS011;59602;52.142;5.408;2022-11-15T04:00:23;25.92;;;9.93;;
71763;SDS011;59602;52.142;5.408;2022-11-15T04:03:04;25.20;;;9.60;;
71763;SDS011;59602;52.142;5.408;2022-11-15T04:05:54;24.13;;;9.68;;
71763;SDS011;59602;52.142;5.408;2022-11-15T04:08:44;23.73;;;10.00;;
71763;SDS011;59602;52.142;5.408;2022-11-15T04:11:13;20.17;;;9.05;;
71763;SDS011;59602;52.142;5.408;2022-11-15T04:13:43;21.63;;;9.70;;
71763;SDS011;59602;52.142;5.408;2022-11-15T04:16:18;24.67;;;9.68;;
71763;SDS011;59602;52.142;5.408;2022-11-15T04:19:12;21.77;;;9.23;;
71763;SDS011;59602;52.142;5.408;2022-11-15T04:22:00;21.60;;;9.53;;
71763;SDS011;59602;52.142;5.408;2022-11-15T04:24:46;22.20;;;9.45;;
71763;SDS011;59602;52.142;5.408;2022-11-15T04:27:13;24.70;;;10.07;;
71763;SDS011;59602;52.142;5.408;2022-11-15T04:29:40;24.05;;;9.93;;
71763;SDS011;59602;52.142;5.408;2022-11-15T04:32:06;22.95;;;10.05;;
71763;SDS011;59602;52.142;5.408;2022-11-15T04:34:53;24.70;;;9.80;;
71763;SDS011;59602;52.142;5.408;2022-11-15T04:37:40;20.48;;;9.38;;
71763;SDS011;59602;52.142;5.408;2022-11-15T04:40:14;22.95;;;10.15;;
71763;SDS011;59602;52.142;5.408;2022-11-15T04:42:42;20.10;;;9.50;;
71763;SDS011;59602;52.142;5.408;2022-11-15T04:45:12;24.27;;;9.52;;
71763;SDS011;59602;52.142;5.408;2022-11-15T04:47:39;19.93;;;9.63;;
71763;SDS011;59602;52.142;5.408;2022-11-15T04:50:42;20.60;;;9.65;;
71763;SDS011;59602;52.142;5.408;2022-11-15T04:53:15;23.13;;;10.07;;
71763;SDS011;59602;52.142;5.408;2022-11-15T04:55:45;21.80;;;9.60;;
71763;SDS011;59602;52.142;5.408;2022-11-15T04:58:28;22.52;;;9.90;;
71763;SDS011;59602;52.142;5.408;2022-11-15T05:00:56;21.03;;;9.47;;
71763;SDS011;59602;52.142;5.408;2022-11-15T05:03:23;19.88;;;9.65;;
71763;SDS011;59602;52.142;5.408;2022-11-15T05:06:09;19.85;;;8.60;;
71763;SDS011;59602;52.142;5.408;2022-11-15T05:08:38;19.73;;;9.88;;
71763;SDS011;59602;52.142;5.408;2022-11-15T05:11:09;23.10;;;9.63;;
71763;SDS011;59602;52.142;5.408;2022-11-15T05:13:37;19.13;;;9.13;;
71763;SDS011;59602;52.142;5.408;2022-11-15T05:16:21;25.30;;;10.35;;
71763;SDS011;59602;52.142;5.408;2022-11-15T05:19:15;21.52;;;9.18;;
71763;SDS011;59602;52.142;5.408;2022-11-15T05:21:42;22.15;;;8.95;;
71763;SDS011;59602;52.142;5.408;2022-11-15T05:24:12;19.80;;;9.43;;
71763;SDS011;59602;52.142;5.408;2022-11-15T05:26:56;19.07;;;8.60;;
71763;SDS011;59602;52.142;5.408;2022-11-15T05:29:25;19.17;;;9.10;;
71763;SDS011;59602;52.142;5.408;2022-11-15T05:32:13;24.10;;;9.15;;
71763;SDS011;59602;52.142;5.408;2022-11-15T05:34:41;19.23;;;8.88;;
71763;SDS011;59602;52.142;5.408;2022-11-15T05:37:51;18.98;;;9.63;;
71763;SDS011;59602;52.142;5.408;2022-11-15T05:40:43;23.30;;;9.97;;
71763;SDS011;59602;52.142;5.408;2022-11-15T05:43:54;19.30;;;8.93;;
71763;SDS011;59602;52.142;5.408;2022-11-15T05:51:02;18.00;;;8.38;;
71763;SDS011;59602;52.142;5.408;2022-11-15T05:54:31;20.65;;;9.38;;
71763;SDS011;59602;52.142;5.408;2022-11-15T05:57:49;22.53;;;8.47;;
71763;SDS011;59602;52.142;5.408;2022-11-15T06:04:19;19.70;;;8.75;;
71763;SDS011;59602;52.142;5.408;2022-11-15T06:07:30;21.70;;;9.38;;
71763;SDS011;59602;52.142;5.408;2022-11-15T06:10:17;18.50;;;8.90;;
71763;SDS011;59602;52.142;5.408;2022-11-15T06:12:55;20.33;;;9.17;;
71763;SDS011;59602;52.142;5.408;2022-11-15T06:18:50;25.45;;;10.18;;
71763;SDS011;59602;52.142;5.408;2022-11-15T06:21:22;18.70;;;9.43;;
71763;SDS011;59602;52.142;5.408;2022-11-15T06:23:52;20.20;;;9.20;;
71763;SDS011;59602;52.142;5.408;2022-11-15T06:26:49;18.83;;;8.63;;
71763;SDS011;59602;52.142;5.408;2022-11-15T06:30:01;20.80;;;9.32;;
71763;SDS011;59602;52.142;5.408;2022-11-15T06:35:47;20.63;;;9.63;;
71763;SDS011;59602;52.142;5.408;2022-11-15T06:38:32;20.63;;;9.82;;
71763;SDS011;59602;52.142;5.408;2022-11-15T06:41:01;22.53;;;9.20;;
71763;SDS011;59602;52.142;5.408;2022-11-15T06:43:32;20.30;;;9.02;;
71763;SDS011;59602;52.142;5.408;2022-11-15T06:46:18;19.90;;;9.30;;
71763;SDS011;59602;52.142;5.408;2022-11-15T06:49:07;21.67;;;9.48;;
71763;SDS011;59602;52.142;5.408;2022-11-15T06:54:27;19.17;;;9.50;;
71763;SDS011;59602;52.142;5.408;2022-11-15T06:56:54;20.50;;;9.55;;
71763;SDS011;59602;52.142;5.408;2022-11-15T06:59:23;21.63;;;9.82;;
71763;SDS011;59602;52.142;5.408;2022-11-15T07:01:51;21.63;;;9.27;;
71763;SDS011;59602;52.142;5.408;2022-11-15T07:04:18;20.15;;;9.27;;
71763;SDS011;59602;52.142;5.408;2022-11-15T07:06:48;22.60;;;9.67;;
71763;SDS011;59602;52.142;5.408;2022-11-15T07:09:15;23.23;;;10.48;;
71763;SDS011;59602;52.142;5.408;2022-11-15T07:11:41;23.05;;;10.10;;
71763;SDS011;59602;52.142;5.408;2022-11-15T07:14:08;21.48;;;9.68;;
71763;SDS011;59602;52.142;5.408;2022-11-15T07:16:39;18.80;;;9.20;;
71763;SDS011;59602;52.142;5.408;2022-11-15T07:19:08;22.47;;;9.10;;
71763;SDS011;59602;52.142;5.408;2022-11-15T07:21:36;22.58;;;9.82;;
71763;SDS011;59602;52.142;5.408;2022-11-15T07:24:03;18.60;;;8.43;;
71763;SDS011;59602;52.142;5.408;2022-11-15T07:26:30;24.70;;;9.57;;
71763;SDS011;59602;52.142;5.408;2022-11-15T07:28:56;23.50;;;10.73;;
71763;SDS011;59602;52.142;5.408;2022-11-15T07:31:23;22.30;;;9.07;;
71763;SDS011;59602;52.142;5.408;2022-11-15T07:33:49;22.98;;;9.60;;
71763;SDS011;59602;52.142;5.408;2022-11-15T07:36:16;21.38;;;9.25;;
71763;SDS011;59602;52.142;5.408;2022-11-15T07:38:45;21.10;;;9.60;;
71763;SDS011;59602;52.142;5.408;2022-11-15T07:41:28;20.15;;;8.95;;
71763;SDS011;59602;52.142;5.408;2022-11-15T07:43:57;18.37;;;8.43;;
71763;SDS011;59602;52.142;5.408;2022-11-15T07:46:23;21.30;;;9.43;;
71763;SDS011;59602;52.142;5.408;2022-11-15T07:48:50;21.67;;;9.25;;
71763;SDS011;59602;52.142;5.408;2022-11-15T07:51:23;19.25;;;8.73;;
71763;SDS011;59602;52.142;5.408;2022-11-15T07:54:09;20.77;;;8.93;;
71763;SDS011;59602;52.142;5.408;2022-11-15T07:56:41;22.07;;;9.87;;
71763;SDS011;59602;52.142;5.408;2022-11-15T07:59:11;20.35;;;9.13;;
71763;SDS011;59602;52.142;5.408;2022-11-15T08:01:43;16.17;;;8.25;;
71763;SDS011;59602;52.142;5.408;2022-11-15T08:04:31;21.50;;;8.95;;
71763;SDS011;59602;52.142;5.408;2022-11-15T08:07:20;38.33;;;9.88;;
71763;SDS011;59602;52.142;5.408;2022-11-15T08:09:50;25.43;;;9.30;;
71763;SDS011;59602;52.142;5.408;2022-11-15T08:13:11;22.10;;;9.80;;
71763;SDS011;59602;52.142;5.408;2022-11-15T08:15:57;21.15;;;7.75;;
71763;SDS011;59602;52.142;5.408;2022-11-15T08:18:51;16.95;;;7.75;;
71763;SDS011;59602;52.142;5.408;2022-11-15T08:21:22;19.55;;;8.18;;
71763;SDS011;59602;52.142;5.408;2022-11-15T08:23:51;17.70;;;7.87;;
71763;SDS011;59602;52.142;5.408;2022-11-15T08:26:18;18.58;;;8.15;;
71763;SDS011;59602;52.142;5.408;2022-11-15T08:28:45;17.25;;;8.10;;
71763;SDS011;59602;52.142;5.408;2022-11-15T08:31:49;19.95;;;8.32;;
71763;SDS011;59602;52.142;5.408;2022-11-15T08:34:39;17.60;;;7.35;;
71763;SDS011;59602;52.142;5.408;2022-11-15T08:37:06;17.27;;;7.27;;
71763;SDS011;59602;52.142;5.408;2022-11-15T08:39:32;18.40;;;7.95;;
71763;SDS011;59602;52.142;5.408;2022-11-15T08:42:00;19.58;;;7.65;;
71763;SDS011;59602;52.142;5.408;2022-11-15T08:44:27;16.50;;;7.47;;
71763;SDS011;59602;52.142;5.408;2022-11-15T08:46:54;17.05;;;7.60;;
71763;SDS011;59602;52.142;5.408;2022-11-15T08:49:21;17.37;;;7.37;;
71763;SDS011;59602;52.142;5.408;2022-11-15T08:51:48;14.60;;;7.05;;
71763;SDS011;59602;52.142;5.408;2022-11-15T08:54:16;18.83;;;7.75;;
71763;SDS011;59602;52.142;5.408;2022-11-15T08:56:46;18.50;;;7.55;;
71763;SDS011;59602;52.142;5.408;2022-11-15T08:59:13;19.38;;;7.95;;
71763;SDS011;59602;52.142;5.408;2022-11-15T09:01:40;18.30;;;7.83;;
71763;SDS011;59602;52.142;5.408;2022-11-15T09:04:06;17.23;;;7.93;;
71763;SDS011;59602;52.142;5.408;2022-11-15T09:06:33;16.05;;;7.78;;
71763;SDS011;59602;52.142;5.408;2022-11-15T09:09:08;17.65;;;7.40;;
71763;SDS011;59602;52.142;5.408;2022-11-15T09:11:34;18.15;;;7.97;;
71763;SDS011;59602;52.142;5.408;2022-11-15T09:14:01;17.80;;;7.77;;
71763;SDS011;59602;52.142;5.408;2022-11-15T09:16:30;25.35;;;12.55;;
71763;SDS011;59602;52.142;5.408;2022-11-15T09:18:57;17.30;;;8.32;;
71763;SDS011;59602;52.142;5.408;2022-11-15T09:21:23;19.30;;;7.40;;
71763;SDS011;59602;52.142;5.408;2022-11-15T09:23:50;14.55;;;7.38;;
71763;SDS011;59602;52.142;5.408;2022-11-15T09:26:20;16.47;;;6.97;;
71763;SDS011;59602;52.142;5.408;2022-11-15T09:28:47;17.77;;;7.63;;
71763;SDS011;59602;52.142;5.408;2022-11-15T09:31:14;21.17;;;7.40;;
71763;SDS011;59602;52.142;5.408;2022-11-15T09:33:47;19.08;;;7.50;;
71763;SDS011;59602;52.142;5.408;2022-11-15T09:36:17;16.45;;;7.13;;
71763;SDS011;59602;52.142;5.408;2022-11-15T09:38:43;14.97;;;7.17;;
71763;SDS011;59602;52.142;5.408;2022-11-15T09:46:50;13.93;;;5.63;;
71763;SDS011;59602;52.142;5.408;2022-11-15T09:49:24;10.88;;;5.00;;
71763;SDS011;59602;52.142;5.408;2022-11-15T09:51:53;13.20;;;5.67;;
71763;SDS011;59602;52.142;5.408;2022-11-15T09:57:20;13.15;;;5.13;;
71763;SDS011;59602;52.142;5.408;2022-11-15T10:03:08;8.23;;;4.30;;
71763;SDS011;59602;52.142;5.408;2022-11-15T10:08:37;16.17;;;4.68;;
71763;SDS011;59602;52.142;5.408;2022-11-15T10:11:25;12.68;;;5.03;;
71763;SDS011;59602;52.142;5.408;2022-11-15T10:14:09;10.10;;;4.30;;
71763;SDS011;59602;52.142;5.408;2022-11-15T10:16:47;9.15;;;4.20;;
71763;SDS011;59602;52.142;5.408;2022-11-15T10:19:35;15.80;;;4.27;;
71763;SDS011;59602;52.142;5.408;2022-11-15T10:22:19;12.00;;;4.97;;
71763;SDS011;59602;52.142;5.408;2022-11-15T10:27:53;6.38;;;3.20;;
71763;SDS011;59602;52.142;5.408;2022-11-15T12:06:20;5.43;;;1.02;;
71763;SDS011;59602;52.142;5.408;2022-11-15T12:08:56;8.52;;;0.90;;
71763;SDS011;59602;52.142;5.408;2022-11-15T12:11:29;4.27;;;0.70;;
71763;SDS011;59602;52.142;5.408;2022-11-15T12:14:05;4.20;;;0.80;;
71763;SDS011;59602;52.142;5.408;2022-11-15T12:16:58;2.20;;;0.40;;
71763;SDS011;59602;52.142;5.408;2022-11-15T12:19:26;1.88;;;0.50;;
71763;SDS011;59602;52.142;5.408;2022-11-15T12:27:05;3.38;;;0.40;;
71763;SDS011;59602;52.142;5.408;2022-11-15T12:29:51;2.25;;;0.40;;
71763;SDS011;59602;52.142;5.408;2022-11-15T12:32:27;5.40;;;1.48;;
71763;SDS011;59602;52.142;5.408;2022-11-15T12:34:56;4.85;;;1.10;;
71763;SDS011;59602;52.142;5.408;2022-11-15T12:40:15;2.65;;;0.45;;
71763;SDS011;59602;52.142;5.408;2022-11-15T12:42:57;3.58;;;0.40;;
71763;SDS011;59602;52.142;5.408;2022-11-15T12:45:25;4.18;;;0.70;;
71763;SDS011;59602;52.142;5.408;2022-11-15T12:58:42;6.28;;;1.10;;
71763;SDS011;59602;52.142;5.408;2022-11-15T13:06:46;3.53;;;0.55;;
71763;SDS011;59602;52.142;5.408;2022-11-15T13:09:57;3.25;;;0.40;;
71763;SDS011;59602;52.142;5.408;2022-11-15T13:14:53;4.85;;;0.80;;
71763;SDS011;59602;52.142;5.408;2022-11-15T13:17:26;4.30;;;0.57;;
71763;SDS011;59602;52.142;5.408;2022-11-15T13:22:43;2.63;;;0.63;;
71763;SDS011;59602;52.142;5.408;2022-11-15T13:25:25;4.95;;;0.80;;
71763;SDS011;59602;52.142;5.408;2022-11-15T13:27:57;3.95;;;0.85;;
71763;SDS011;59602;52.142;5.408;2022-11-15T13:30:30;2.60;;;0.53;;
71763;SDS011;59602;52.142;5.408;2022-11-15T13:32:59;5.93;;;0.60;;
71763;SDS011;59602;52.142;5.408;2022-11-15T13:39:12;3.08;;;0.50;;
71763;SDS011;59602;52.142;5.408;2022-11-15T13:42:40;2.38;;;0.60;;
71763;SDS011;59602;52.142;5.408;2022-11-15T13:45:12;3.80;;;0.40;;
71763;SDS011;59602;52.142;5.408;2022-11-15T13:51:37;4.15;;;0.73;;
71763;SDS011;59602;52.142;5.408;2022-11-15T13:54:16;3.47;;;0.60;;
71763;SDS011;59602;52.142;5.408;2022-11-15T13:57:35;4.50;;;0.57;;
71763;SDS011;59602;52.142;5.408;2022-11-15T14:06:12;3.95;;;1.30;;
71763;SDS011;59602;52.142;5.408;2022-11-15T14:08:42;3.67;;;0.63;;
71763;SDS011;59602;52.142;5.408;2022-11-15T14:11:28;2.35;;;0.65;;
71763;SDS011;59602;52.142;5.408;2022-11-15T14:16:36;5.85;;;1.52;;
71763;SDS011;59602;52.142;5.408;2022-11-15T14:19:04;6.68;;;1.20;;
71763;SDS011;59602;52.142;5.408;2022-11-15T14:21:32;2.72;;;0.68;;
71763;SDS011;59602;52.142;5.408;2022-11-15T14:24:15;12.38;;;2.95;;
71763;SDS011;59602;52.142;5.408;2022-11-15T14:26:48;6.93;;;1.90;;
71763;SDS011;59602;52.142;5.408;2022-11-15T14:29:22;6.45;;;1.88;;
71763;SDS011;59602;52.142;5.408;2022-11-15T14:31:53;7.43;;;1.02;;
71763;SDS011;59602;52.142;5.408;2022-11-15T14:34:32;5.40;;;1.00;;
71763;SDS011;59602;52.142;5.408;2022-11-15T14:36:59;4.68;;;0.90;;
71763;SDS011;59602;52.142;5.408;2022-11-15T14:39:25;2.50;;;0.77;;
71763;SDS011;59602;52.142;5.408;2022-11-15T14:41:52;7.65;;;1.55;;
71763;SDS011;59602;52.142;5.408;2022-11-15T14:44:18;4.35;;;1.17;;
71763;SDS011;59602;52.142;5.408;2022-11-15T14:46:46;3.42;;;0.30;;
71763;SDS011;59602;52.142;5.408;2022-11-15T14:49:14;4.07;;;0.60;;
71763;SDS011;59602;52.142;5.408;2022-11-15T14:51:41;3.73;;;1.10;;
71763;SDS011;59602;52.142;5.408;2022-11-15T14:54:09;3.55;;;1.10;;
71763;SDS011;59602;52.142;5.408;2022-11-15T14:56:36;4.88;;;0.60;;
71763;SDS011;59602;52.142;5.408;2022-11-15T14:59:03;3.58;;;1.73;;
71763;SDS011;59602;52.142;5.408;2022-11-15T15:01:30;2.35;;;0.52;;
71763;SDS011;59602;52.142;5.408;2022-11-15T15:03:56;4.20;;;0.53;;
71763;SDS011;59602;52.142;5.408;2022-11-15T15:06:24;3.20;;;0.60;;
71763;SDS011;59602;52.142;5.408;2022-11-15T15:08:52;2.40;;;0.40;;
71763;SDS011;59602;52.142;5.408;2022-11-15T15:11:21;4.70;;;1.08;;
71763;SDS011;59602;52.142;5.408;2022-11-15T15:13:48;3.75;;;0.60;;
71763;SDS011;59602;52.142;5.408;2022-11-15T15:16:14;4.83;;;0.90;;
71763;SDS011;59602;52.142;5.408;2022-11-15T15:18:41;3.10;;;0.60;;
71763;SDS011;59602;52.142;5.408;2022-11-15T15:21:27;3.05;;;0.30;;
71763;SDS011;59602;52.142;5.408;2022-11-15T15:24:02;3.42;;;0.75;;
71763;SDS011;59602;52.142;5.408;2022-11-15T15:26:29;4.57;;;0.63;;
71763;SDS011;59602;52.142;5.408;2022-11-15T15:28:56;2.07;;;0.30;;
71763;SDS011;59602;52.142;5.408;2022-11-15T15:31:22;1.63;;;0.30;;
71763;SDS011;59602;52.142;5.408;2022-11-15T15:33:49;1.70;;;0.43;;
71763;SDS011;59602;52.142;5.408;2022-11-15T15:36:17;2.72;;;0.30;;
71763;SDS011;59602;52.142;5.408;2022-11-15T15:38:44;2.88;;;0.52;;
71763;SDS011;59602;52.142;5.408;2022-11-15T15:41:13;2.90;;;0.50;;
71763;SDS011;59602;52.142;5.408;2022-11-15T15:43:41;2.33;;;0.28;;
71763;SDS011;59602;52.142;5.408;2022-11-15T15:46:09;1.52;;;0.20;;
71763;SDS011;59602;52.142;5.408;2022-11-15T15:48:38;3.97;;;0.50;;
71763;SDS011;59602;52.142;5.408;2022-11-15T15:51:06;3.72;;;0.30;;
71763;SDS011;59602;52.142;5.408;2022-11-15T15:53:44;1.97;;;0.40;;
71763;SDS011;59602;52.142;5.408;2022-11-15T15:56:11;3.42;;;1.25;;
71763;SDS011;59602;52.142;5.408;2022-11-15T15:58:40;2.80;;;0.40;;
71763;SDS011;59602;52.142;5.408;2022-11-15T16:01:06;1.63;;;0.57;;
71763;SDS011;59602;52.142;5.408;2022-11-15T16:03:33;2.25;;;0.30;;
71763;SDS011;59602;52.142;5.408;2022-11-15T16:05:59;2.27;;;0.50;;
71763;SDS011;59602;52.142;5.408;2022-11-15T16:08:27;4.07;;;0.45;;
71763;SDS011;59602;52.142;5.408;2022-11-15T16:11:15;1.95;;;0.40;;
71763;SDS011;59602;52.142;5.408;2022-11-15T16:13:42;2.53;;;0.40;;
71763;SDS011;59602;52.142;5.408;2022-11-15T16:16:08;3.88;;;0.70;;
71763;SDS011;59602;52.142;5.408;2022-11-15T16:18:39;3.67;;;1.00;;
71763;SDS011;59602;52.142;5.408;2022-11-15T16:21:07;1.70;;;0.40;;
71763;SDS011;59602;52.142;5.408;2022-11-15T16:23:34;2.10;;;0.50;;
71763;SDS011;59602;52.142;5.408;2022-11-15T16:26:06;2.13;;;0.50;;
71763;SDS011;59602;52.142;5.408;2022-11-15T16:28:44;2.97;;;0.40;;
71763;SDS011;59602;52.142;5.408;2022-11-15T16:31:12;2.13;;;0.30;;
71763;SDS011;59602;52.142;5.408;2022-11-15T16:33:39;1.15;;;0.22;;
71763;SDS011;59602;52.142;5.408;2022-11-15T16:36:18;2.60;;;0.60;;
71763;SDS011;59602;52.142;5.408;2022-11-15T16:38:56;3.67;;;0.55;;
71763;SDS011;59602;52.142;5.408;2022-11-15T16:41:23;2.10;;;0.73;;
71763;SDS011;59602;52.142;5.408;2022-11-15T16:43:49;3.13;;;0.30;;
71763;SDS011;59602;52.142;5.408;2022-11-15T16:46:17;3.25;;;0.50;;
71763;SDS011;59602;52.142;5.408;2022-11-15T16:48:46;3.25;;;0.63;;
71763;SDS011;59602;52.142;5.408;2022-11-15T16:51:13;1.92;;;0.40;;
71763;SDS011;59602;52.142;5.408;2022-11-15T16:53:41;4.65;;;1.13;;
71763;SDS011;59602;52.142;5.408;2022-11-15T16:56:19;2.60;;;1.00;;
71763;SDS011;59602;52.142;5.408;2022-11-15T16:58:49;3.35;;;0.60;;
71763;SDS011;59602;52.142;5.408;2022-11-15T17:01:18;1.65;;;0.65;;
71763;SDS011;59602;52.142;5.408;2022-11-15T17:03:48;6.07;;;1.38;;
71763;SDS011;59602;52.142;5.408;2022-11-15T17:06:14;2.00;;;0.40;;
71763;SDS011;59602;52.142;5.408;2022-11-15T17:08:44;3.47;;;0.60;;
71763;SDS011;59602;52.142;5.408;2022-11-15T17:11:13;3.30;;;0.50;;
71763;SDS011;59602;52.142;5.408;2022-11-15T17:13:43;2.78;;;0.70;;
71763;SDS011;59602;52.142;5.408;2022-11-15T17:16:11;2.33;;;0.40;;
71763;SDS011;59602;52.142;5.408;2022-11-15T17:18:39;1.73;;;0.38;;
71763;SDS011;59602;52.142;5.408;2022-11-15T17:21:08;3.60;;;0.80;;
71763;SDS011;59602;52.142;5.408;2022-11-15T17:23:38;1.35;;;0.30;;
71763;SDS011;59602;52.142;5.408;2022-11-15T17:26:05;3.42;;;0.80;;
71763;SDS011;59602;52.142;5.408;2022-11-15T17:28:53;2.65;;;0.70;;
71763;SDS011;59602;52.142;5.408;2022-11-15T17:31:22;3.38;;;0.40;;
71763;SDS011;59602;52.142;5.408;2022-11-15T17:33:50;3.37;;;0.47;;
71763;SDS011;59602;52.142;5.408;2022-11-15T17:36:17;1.95;;;0.70;;
71763;SDS011;59602;52.142;5.408;2022-11-15T17:38:43;2.55;;;0.80;;
71763;SDS011;59602;52.142;5.408;2022-11-15T17:41:15;2.17;;;0.45;;
71763;SDS011;59602;52.142;5.408;2022-11-15T17:43:42;2.47;;;0.63;;
71763;SDS011;59602;52.142;5.408;2022-11-15T17:46:10;3.20;;;1.37;;
71763;SDS011;59602;52.142;5.408;2022-11-15T17:48:39;3.00;;;0.60;;
71763;SDS011;59602;52.142;5.408;2022-11-15T17:51:08;3.47;;;0.88;;
71763;SDS011;59602;52.142;5.408;2022-11-15T17:53:37;3.15;;;1.17;;
71763;SDS011;59602;52.142;5.408;2022-11-15T17:56:06;2.92;;;0.68;;
71763;SDS011;59602;52.142;5.408;2022-11-15T17:58:35;3.87;;;0.87;;
71763;SDS011;59602;52.142;5.408;2022-11-15T18:03:35;2.33;;;0.90;;
71763;SDS011;59602;52.142;5.408;2022-11-15T18:06:04;4.75;;;1.10;;
71763;SDS011;59602;52.142;5.408;2022-11-15T18:08:32;4.30;;;1.30;;
71763;SDS011;59602;52.142;5.408;2022-11-15T18:11:28;4.87;;;1.17;;
71763;SDS011;59602;52.142;5.408;2022-11-15T18:14:02;3.88;;;1.25;;
71763;SDS011;59602;52.142;5.408;2022-11-15T18:16:31;7.47;;;2.05;;
71763;SDS011;59602;52.142;5.408;2022-11-15T18:19:02;5.25;;;1.15;;
71763;SDS011;59602;52.142;5.408;2022-11-15T18:21:48;4.28;;;1.33;;
71763;SDS011;59602;52.142;5.408;2022-11-15T18:24:36;6.17;;;1.50;;
71763;SDS011;59602;52.142;5.408;2022-11-15T18:27:04;5.78;;;1.48;;
71763;SDS011;59602;52.142;5.408;2022-11-15T18:29:31;6.18;;;1.60;;
71763;SDS011;59602;52.142;5.408;2022-11-15T18:31:59;3.83;;;2.00;;
71763;SDS011;59602;52.142;5.408;2022-11-15T18:34:51;5.93;;;1.67;;
71763;SDS011;59602;52.142;5.408;2022-11-15T18:37:18;4.30;;;1.40;;
71763;SDS011;59602;52.142;5.408;2022-11-15T18:40:21;4.55;;;1.20;;
71763;SDS011;59602;52.142;5.408;2022-11-15T18:42:51;3.55;;;1.70;;
71763;SDS011;59602;52.142;5.408;2022-11-15T18:45:20;3.40;;;1.65;;
71763;SDS011;59602;52.142;5.408;2022-11-15T18:47:49;4.93;;;1.67;;
71763;SDS011;59602;52.142;5.408;2022-11-15T18:51:00;4.27;;;1.73;;
71763;SDS011;59602;52.142;5.408;2022-11-15T18:53:30;3.08;;;1.60;;
71763;SDS011;59602;52.142;5.408;2022-11-15T18:56:00;3.85;;;1.77;;
71763;SDS011;59602;52.142;5.408;2022-11-15T18:58:30;5.60;;;1.67;;
71763;SDS011;59602;52.142;5.408;2022-11-15T19:01:19;4.65;;;1.83;;
71763;SDS011;59602;52.142;5.408;2022-11-15T19:04:05;4.20;;;2.00;;
71763;SDS011;59602;52.142;5.408;2022-11-15T19:07:27;7.57;;;2.90;;
71763;SDS011;59602;52.142;5.408;2022-11-15T19:10:02;4.72;;;2.17;;